Time;durP1;ratioP1;P1;durP2;ratioP2;P2;SDS_P1;SDS_P2;PMS_P1;PMS_P2;Temp;Humidity;BMP_temperature;BMP_pressure;BME280_temperature;BME280_humidity;BME280_pressure;Samples;Min_cycle;Max_cycle;Signal;HPM_P1;HPM_P2
2022/01/08 00:00:55;;;;;;;17.75;6.95;;;0.50;99.90;;;;;;5011772;28;20053;-85
2022/01/08 00:03:21;;;;;;;17.75;7.22;;;0.60;99.90;;;;;;5014884;28;20295;-84
2022/01/08 00:05:48;;;;;;;16.95;5.88;;;0.60;99.90;;;;;;5013852;28;20058;-84
2022/01/08 00:08:14;;;;;;;20.23;5.90;;;0.60;99.90;;;;;;5015293;28;20161;-84
2022/01/08 00:10:41;;;;;;;29.67;8.10;;;0.70;99.90;;;;;;5014135;28;20361;-85
2022/01/08 00:13:07;;;;;;;27.45;6.95;;;0.70;99.90;;;;;;4995458;28;20049;-85
2022/01/08 00:15:34;;;;;;;11.75;5.47;;;0.70;99.90;;;;;;5012493;28;20046;-85
2022/01/08 00:18:01;;;;;;;12.25;4.63;;;1.00;99.90;;;;;;4996107;28;20516;-85
2022/01/08 00:20:27;;;;;;;14.25;5.68;;;1.30;99.90;;;;;;4997831;28;20647;-86
2022/01/08 00:22:55;;;;;;;20.92;6.53;;;0.90;99.90;;;;;;4997576;28;20050;-85
2022/01/08 00:25:21;;;;;;;14.93;4.82;;;0.80;99.90;;;;;;5013734;28;20045;-84
2022/01/08 00:27:46;;;;;;;17.02;5.50;;;1.40;99.90;;;;;;4997148;28;20076;-85
2022/01/08 00:30:13;;;;;;;20.17;5.85;;;0.70;99.90;;;;;;5013888;28;20894;-84
2022/01/08 00:32:40;;;;;;;19.92;5.72;;;0.80;99.90;;;;;;4995151;28;20050;-85
2022/01/08 00:35:08;;;;;;;14.80;4.93;;;0.70;99.90;;;;;;5013211;28;20049;-86
2022/01/08 00:37:34;;;;;;;14.63;5.65;;;0.70;99.90;;;;;;4996361;28;20062;-85
2022/01/08 00:40:01;;;;;;;15.35;6.13;;;0.60;99.90;;;;;;4995356;28;20060;-85
2022/01/08 00:42:26;;;;;;;17.42;6.03;;;0.60;99.90;;;;;;4978233;28;20084;-85
2022/01/08 00:44:52;;;;;;;16.35;5.85;;;0.90;99.90;;;;;;5012188;28;20616;-85
2022/01/08 00:47:18;;;;;;;13.80;4.30;;;1.30;99.90;;;;;;5011335;28;20080;-85
2022/01/08 00:49:43;;;;;;;23.38;6.05;;;0.50;99.90;;;;;;4992797;28;20073;-85
2022/01/08 00:52:09;;;;;;;13.23;5.50;;;0.50;99.90;;;;;;4994295;28;20045;-85
2022/01/08 00:54:36;;;;;;;22.10;6.85;;;0.50;99.90;;;;;;5012601;28;20116;-86
2022/01/08 00:57:03;;;;;;;15.77;5.35;;;0.50;99.90;;;;;;4995823;28;20417;-85
2022/01/08 00:59:29;;;;;;;16.08;5.45;;;0.50;99.90;;;;;;5013223;28;20050;-86
2022/01/08 01:01:54;;;;;;;19.30;6.53;;;0.50;99.90;;;;;;5013189;28;20076;-86
2022/01/08 01:04:20;;;;;;;14.80;6.25;;;0.40;99.90;;;;;;4994644;28;20057;-85
2022/01/08 01:06:46;;;;;;;16.98;6.82;;;0.40;99.90;;;;;;4994633;28;20081;-85
2022/01/08 01:09:11;;;;;;;17.92;5.85;;;0.40;99.90;;;;;;5012776;28;20058;-83
2022/01/08 01:11:37;;;;;;;14.70;6.22;;;0.50;99.90;;;;;;5012370;28;20427;-84
2022/01/08 01:14:03;;;;;;;27.30;6.10;;;0.60;99.90;;;;;;4978287;28;20045;-84
2022/01/08 01:16:28;;;;;;;19.55;6.05;;;0.70;99.90;;;;;;4980008;28;20060;-85
2022/01/08 01:18:55;;;;;;;17.30;5.72;;;0.80;99.90;;;;;;4996223;28;20133;-84
2022/01/08 01:21:21;;;;;;;12.13;4.57;;;1.30;99.90;;;;;;5012659;28;20057;-84
2022/01/08 01:23:47;;;;;;;19.15;6.32;;;1.50;99.90;;;;;;4993965;28;20103;-83
2022/01/08 01:26:18;;;;;;;16.95;6.25;;;0.90;99.90;;;;;;4978966;28;20052;-85
2022/01/08 01:28:51;;;;;;;20.50;7.07;;;0.90;99.90;;;;;;5013622;28;20688;-86
2022/01/08 01:47:18;;;;;;;26.95;8.45;;;1.10;99.90;;;;;;5011038;28;20058;-84
2022/01/08 01:49:46;;;;;;;26.88;7.63;;;1.20;99.90;;;;;;4991580;28;20175;-84
2022/01/08 01:52:14;;;;;;;23.52;8.63;;;1.20;99.90;;;;;;5011140;28;20046;-86
2022/01/08 01:54:41;;;;;;;25.08;8.25;;;1.20;99.90;;;;;;5010728;28;20058;-85
2022/01/08 01:57:08;;;;;;;25.00;7.70;;;1.30;99.90;;;;;;4992187;28;20050;-84
2022/01/08 01:59:35;;;;;;;22.33;9.50;;;1.40;99.90;;;;;;5010950;28;20057;-86
2022/01/08 02:02:03;;;;;;;21.38;7.57;;;1.50;99.90;;;;;;5013724;28;20120;-86
2022/01/08 02:04:28;;;;;;;22.95;8.52;;;1.30;99.90;;;;;;5014195;28;20103;-86
2022/01/08 02:06:54;;;;;;;20.02;8.10;;;1.40;99.90;;;;;;4994641;28;20128;-87
2022/01/08 02:09:20;;;;;;;23.38;8.88;;;1.80;99.90;;;;;;4978642;28;20049;-86
2022/01/08 02:12:05;;;;;;;27.85;9.70;;;1.40;99.90;;;;;;4978580;28;20041;-85
2022/01/08 02:14:33;;;;;;;21.85;8.93;;;1.30;99.90;;;;;;4976710;28;20530;-87
2022/01/08 02:16:59;;;;;;;24.67;10.88;;;1.20;99.90;;;;;;4993391;28;20058;-85
2022/01/08 02:19:26;;;;;;;37.15;11.90;;;1.10;99.90;;;;;;4978148;28;20050;-85
2022/01/08 02:22:00;;;;;;;30.13;11.88;;;1.00;99.90;;;;;;5012693;28;20062;-85
2022/01/08 02:24:27;;;;;;;32.63;11.75;;;1.00;99.90;;;;;;4978443;28;20481;-84
2022/01/08 02:26:53;;;;;;;30.55;12.05;;;1.70;99.90;;;;;;5018047;28;20124;-85
2022/01/08 02:29:20;;;;;;;39.13;13.52;;;0.90;99.90;;;;;;5017727;28;20092;-85
2022/01/08 02:31:57;;;;;;;28.23;11.48;;;0.80;99.90;;;;;;5000102;28;20570;-85
2022/01/08 02:34:25;;;;;;;34.45;13.18;;;0.80;99.90;;;;;;5000288;28;20518;-84
2022/01/08 02:36:51;;;;;;;29.58;11.98;;;0.80;99.90;;;;;;5000767;28;20057;-85
2022/01/08 02:39:16;;;;;;;34.53;12.18;;;0.70;99.90;;;;;;4998782;28;20111;-84
2022/01/08 02:41:42;;;;;;;39.88;12.38;;;1.40;99.90;;;;;;4998994;28;20046;-84
2022/01/08 02:44:09;;;;;;;40.47;14.07;;;0.70;99.90;;;;;;5015416;28;20085;-85
2022/01/08 02:46:37;;;;;;;36.53;13.55;;;0.60;99.90;;;;;;4997679;28;20046;-85
2022/01/08 02:49:04;;;;;;;32.75;10.15;;;0.50;99.90;;;;;;5015092;28;20041;-86
2022/01/08 02:51:33;;;;;;;30.33;12.48;;;0.50;99.90;;;;;;4981431;28;20405;-85
2022/01/08 02:53:59;;;;;;;40.75;14.38;;;0.50;99.90;;;;;;4982504;28;20058;-85
2022/01/08 02:56:24;;;;;;;40.92;13.95;;;0.60;99.90;;;;;;4999468;28;20045;-85
2022/01/08 02:58:50;;;;;;;34.50;13.63;;;0.50;99.90;;;;;;5018134;28;20443;-85
2022/01/08 03:01:16;;;;;;;45.58;14.60;;;0.50;99.90;;;;;;5018750;28;20052;-85
2022/01/08 03:03:41;;;;;;;52.13;13.23;;;0.80;99.90;;;;;;4999863;28;20050;-85
2022/01/08 03:06:07;;;;;;;37.33;12.90;;;0.90;99.90;;;;;;5000839;28;20053;-85
2022/01/08 03:08:32;;;;;;;33.72;12.52;;;0.40;99.90;;;;;;5000741;28;20058;-85
2022/01/08 03:10:58;;;;;;;44.03;12.95;;;0.40;99.90;;;;;;5017828;28;20455;-85
2022/01/08 03:13:25;;;;;;;40.33;13.32;;;0.40;99.90;;;;;;4984672;28;20054;-85
2022/01/08 03:15:51;;;;;;;47.75;15.05;;;0.30;99.90;;;;;;5016932;28;20141;-85
2022/01/08 03:18:16;;;;;;;30.30;12.38;;;0.30;99.90;;;;;;5001190;28;20053;-84
2022/01/08 03:20:48;;;;;;;43.03;14.18;;;0.30;99.90;;;;;;4984372;28;20053;-84
2022/01/08 03:23:16;;;;;;;41.33;15.05;;;0.60;99.90;;;;;;5015022;28;20112;-84
2022/01/08 03:25:44;;;;;;;42.08;13.98;;;0.30;99.90;;;;;;4999311;28;20519;-84
2022/01/08 03:28:11;;;;;;;33.00;11.63;;;0.40;99.90;;;;;;5000579;28;20053;-84
2022/01/08 03:30:38;;;;;;;38.65;12.43;;;0.20;99.90;;;;;;5017920;28;20072;-84
2022/01/08 03:33:04;;;;;;;35.95;12.20;;;0.20;99.90;;;;;;4999815;28;20049;-86
2022/01/08 03:35:30;;;;;;;36.58;10.95;;;0.20;99.90;;;;;;4988139;28;20042;-85
2022/01/08 03:37:55;;;;;;;34.80;10.45;;;-0.10;99.90;;;;;;5014274;28;20056;-84
2022/01/08 03:40:21;;;;;;;32.30;11.30;;;0.10;99.90;;;;;;5015014;28;20420;-84
2022/01/08 03:42:47;;;;;;;26.83;11.07;;;0.10;99.90;;;;;;5014913;28;20154;-85
2022/01/08 03:45:12;;;;;;;35.75;11.27;;;0.10;99.90;;;;;;5014313;28;20503;-84
2022/01/08 03:47:52;;;;;;;28.67;10.32;;;0.10;99.90;;;;;;4996084;28;20073;-85
2022/01/08 03:50:18;;;;;;;32.30;9.98;;;0.10;99.90;;;;;;4997212;28;20049;-85
2022/01/08 03:52:46;;;;;;;35.50;10.98;;;0.10;99.90;;;;;;5015628;28;20129;-84
2022/01/08 03:55:12;;;;;;;27.05;10.02;;;0.20;99.90;;;;;;5013963;28;20054;-86
2022/01/08 03:57:37;;;;;;;25.80;9.35;;;0.20;99.90;;;;;;4998191;28;20056;-86
2022/01/08 04:00:04;;;;;;;29.05;9.77;;;0.20;99.90;;;;;;4996311;28;20042;-84
2022/01/08 04:02:30;;;;;;;29.63;9.93;;;0.20;99.90;;;;;;5011996;28;20128;-85
2022/01/08 04:04:56;;;;;;;27.42;10.00;;;0.20;99.90;;;;;;4995971;28;20041;-85
2022/01/08 04:07:21;;;;;;;27.77;9.10;;;0.30;99.90;;;;;;5014223;28;20056;-85
2022/01/08 04:09:50;;;;;;;31.88;9.82;;;0.30;99.90;;;;;;4996313;28;20072;-85
2022/01/08 04:12:21;;;;;;;31.60;9.57;;;0.20;99.90;;;;;;4995576;28;20377;-85
2022/01/08 04:15:04;;;;;;;39.67;10.95;;;0.10;99.90;;;;;;4995897;28;20116;-85
2022/01/08 04:17:29;;;;;;;33.55;10.05;;;0.10;99.90;;;;;;4995828;28;20056;-84
2022/01/08 04:19:55;;;;;;;29.88;9.90;;;0.70;99.90;;;;;;4995246;28;20050;-84
2022/01/08 04:22:21;;;;;;;29.98;8.27;;;0.10;99.90;;;;;;4995859;28;20065;-85
2022/01/08 04:24:46;;;;;;;30.33;8.68;;;0.60;99.90;;;;;;5015048;28;20053;-85
2022/01/08 04:27:12;;;;;;;20.45;7.47;;;0.10;99.90;;;;;;4997584;28;20552;-85
2022/01/08 04:29:38;;;;;;;20.80;8.13;;;0.20;99.90;;;;;;5015643;28;20084;-84
2022/01/08 04:32:04;;;;;;;28.27;7.80;;;0.30;99.90;;;;;;5046140;28;20121;-85
2022/01/08 04:34:29;;;;;;;25.75;6.72;;;0.30;99.90;;;;;;5029021;28;20073;-84
2022/01/08 04:36:55;;;;;;;15.48;5.75;;;0.30;99.90;;;;;;5022693;28;20045;-84
2022/01/08 04:39:20;;;;;;;17.15;5.72;;;0.50;99.90;;;;;;5033256;28;20049;-84
2022/01/08 04:41:46;;;;;;;20.02;6.07;;;0.50;99.90;;;;;;5015893;28;20047;-85
2022/01/08 04:44:12;;;;;;;21.02;6.35;;;0.50;99.90;;;;;;5033126;28;20508;-85
2022/01/08 04:46:40;;;;;;;19.02;5.32;;;0.50;99.90;;;;;;5033342;28;20114;-84
2022/01/08 04:49:06;;;;;;;17.65;5.82;;;0.50;99.90;;;;;;5031874;28;20052;-84
2022/01/08 04:51:32;;;;;;;11.65;4.47;;;0.80;99.90;;;;;;5032525;28;20045;-85
2022/01/08 04:53:57;;;;;;;18.27;5.18;;;0.50;99.90;;;;;;5033726;28;20438;-85
2022/01/08 04:56:23;;;;;;;19.55;5.70;;;0.60;99.90;;;;;;5033457;28;20049;-85
2022/01/08 04:58:49;;;;;;;19.77;6.00;;;0.60;99.90;;;;;;5014842;28;20053;-84
2022/01/08 05:01:17;;;;;;;17.40;5.35;;;0.70;99.90;;;;;;5014322;28;20054;-84
2022/01/08 05:03:43;;;;;;;25.40;6.20;;;0.60;99.90;;;;;;5033393;28;20052;-85
2022/01/08 05:06:09;;;;;;;11.75;4.90;;;0.70;99.90;;;;;;5014800;28;20488;-85
2022/01/08 05:08:35;;;;;;;19.15;7.03;;;1.00;99.90;;;;;;5030215;28;20049;-84
2022/01/08 05:11:00;;;;;;;28.55;7.70;;;0.50;99.90;;;;;;5031698;28;20139;-84
2022/01/08 05:13:26;;;;;;;19.17;7.68;;;0.50;99.90;;;;;;4997741;28;20186;-85
2022/01/08 05:15:51;;;;;;;22.15;7.07;;;0.50;99.90;;;;;;5031805;28;20045;-84
2022/01/08 05:18:17;;;;;;;27.92;8.73;;;0.50;99.90;;;;;;5032967;28;20083;-85
2022/01/08 05:20:52;;;;;;;21.50;8.18;;;0.50;99.90;;;;;;5000102;28;20045;-85
2022/01/08 05:23:18;;;;;;;24.88;9.52;;;0.90;99.90;;;;;;5016461;28;20503;-85
2022/01/08 05:25:43;;;;;;;37.72;9.43;;;0.60;99.90;;;;;;5034351;28;20056;-85
2022/01/08 05:28:09;;;;;;;30.33;9.40;;;0.80;99.90;;;;;;4997129;28;20053;-85
2022/01/08 05:30:35;;;;;;;31.92;9.70;;;0.60;99.90;;;;;;5012954;28;20057;-84
2022/01/08 05:33:00;;;;;;;35.88;10.50;;;1.10;99.90;;;;;;5029742;28;20064;-84
2022/01/08 05:35:27;;;;;;;30.33;10.38;;;0.40;99.90;;;;;;5031426;28;20047;-84
2022/01/08 05:37:53;;;;;;;33.33;10.55;;;0.40;99.90;;;;;;4997279;28;20077;-84
2022/01/08 05:40:20;;;;;;;33.47;10.48;;;0.30;99.90;;;;;;5032422;28;20042;-85
2022/01/08 05:42:46;;;;;;;32.38;10.40;;;0.60;99.90;;;;;;4996861;28;20500;-83
2022/01/08 05:45:12;;;;;;;29.58;10.07;;;0.20;99.90;;;;;;5032355;28;20048;-83
2022/01/08 05:47:38;;;;;;;29.55;9.57;;;0.10;99.90;;;;;;4996890;28;20053;-84
2022/01/08 05:50:06;;;;;;;37.17;10.77;;;0.10;99.90;;;;;;5012021;28;20424;-83
2022/01/08 05:52:31;;;;;;;33.92;10.73;;;0.10;99.90;;;;;;5011670;28;20456;-83
2022/01/08 05:54:57;;;;;;;32.05;11.57;;;0.00;99.90;;;;;;5029727;28;20128;-84
2022/01/08 05:57:23;;;;;;;46.47;11.77;;;0.00;99.90;;;;;;5031761;28;20065;-85
2022/01/08 05:59:48;;;;;;;42.70;11.88;;;0.50;99.90;;;;;;5011958;28;20048;-83
2022/01/08 06:02:15;;;;;;;43.22;14.07;;;-0.10;99.90;;;;;;5030144;28;20103;-83
2022/01/08 06:04:40;;;;;;;35.83;12.05;;;-0.10;99.90;;;;;;5012072;28;20061;-84
2022/01/08 06:07:06;;;;;;;42.65;13.20;;;-0.30;99.90;;;;;;5028644;28;20570;-83
2022/01/08 06:09:31;;;;;;;42.83;13.27;;;-0.10;99.90;;;;;;5030197;28;20083;-83
2022/01/08 06:11:57;;;;;;;45.15;12.48;;;-0.40;99.90;;;;;;5030004;28;20571;-84
2022/01/08 06:14:23;;;;;;;35.13;12.45;;;-0.40;99.90;;;;;;5011142;28;20084;-84
2022/01/08 06:16:49;;;;;;;38.53;11.77;;;-0.40;99.90;;;;;;5010365;28;20103;-83
2022/01/08 06:19:15;;;;;;;41.75;12.32;;;-0.40;99.90;;;;;;5028835;28;20459;-83
2022/01/08 06:21:42;;;;;;;50.00;13.15;;;-0.40;99.90;;;;;;5012045;28;20176;-83
2022/01/08 06:24:08;;;;;;;48.25;12.93;;;-0.40;99.90;;;;;;5010492;28;20060;-83
2022/01/08 06:26:35;;;;;;;53.05;14.57;;;-0.50;99.90;;;;;;5027653;28;20053;-84
2022/01/08 06:29:01;;;;;;;39.88;12.90;;;-0.40;99.90;;;;;;5021982;28;20054;-83
2022/01/08 06:31:27;;;;;;;36.97;11.80;;;-0.30;99.90;;;;;;5008853;28;20125;-84
2022/01/08 06:33:54;;;;;;;37.10;11.38;;;-0.30;99.90;;;;;;5008800;28;20713;-84
2022/01/08 06:36:22;;;;;;;42.78;14.77;;;-0.20;99.90;;;;;;5009926;28;20042;-83
2022/01/08 06:38:48;;;;;;;44.28;12.13;;;-0.10;99.90;;;;;;5010945;28;20050;-84
2022/01/08 06:41:14;;;;;;;46.35;14.32;;;-0.10;99.90;;;;;;5011784;28;20144;-84
2022/01/08 06:43:39;;;;;;;45.42;13.90;;;0.00;99.90;;;;;;5012567;28;20049;-84
2022/01/08 06:46:05;;;;;;;36.60;12.57;;;0.30;99.90;;;;;;5010835;28;20049;-84
2022/01/08 06:48:31;;;;;;;34.80;11.40;;;0.20;99.90;;;;;;5011275;28;20093;-85
2022/01/08 06:50:57;;;;;;;51.63;14.93;;;0.20;99.90;;;;;;5010530;28;20104;-83
2022/01/08 06:53:22;;;;;;;51.28;14.13;;;0.20;99.90;;;;;;5009324;28;20574;-83
2022/01/08 06:55:48;;;;;;;44.63;15.05;;;0.10;99.90;;;;;;5009553;28;20109;-85
2022/01/08 06:58:14;;;;;;;45.20;14.55;;;0.50;99.90;;;;;;5008627;28;20428;-84
2022/01/08 07:00:40;;;;;;;36.40;14.02;;;0.00;99.90;;;;;;4992935;28;20100;-84
2022/01/08 07:03:09;;;;;;;44.80;15.93;;;-0.10;99.90;;;;;;5009042;28;20049;-84
2022/01/08 07:05:36;;;;;;;42.28;14.85;;;-0.10;99.90;;;;;;4992325;28;20050;-84
2022/01/08 07:08:02;;;;;;;43.75;13.57;;;-0.10;99.90;;;;;;4993821;28;20050;-84
2022/01/08 07:10:28;;;;;;;46.10;13.55;;;-0.10;99.90;;;;;;4995120;28;20064;-85
2022/01/08 07:12:53;;;;;;;43.47;14.25;;;-0.10;99.90;;;;;;5015354;28;20660;-85
2022/01/08 07:15:19;;;;;;;44.38;13.00;;;-0.10;99.90;;;;;;4981826;28;20057;-84
2022/01/08 07:17:46;;;;;;;51.33;14.02;;;-0.10;99.90;;;;;;5014119;28;20046;-83
2022/01/08 07:20:12;;;;;;;43.13;14.70;;;0.10;99.90;;;;;;4996154;28;20053;-84
2022/01/08 07:22:38;;;;;;;47.17;14.38;;;-0.10;99.90;;;;;;5014736;28;20411;-84
2022/01/08 07:25:04;;;;;;;52.35;14.13;;;-0.10;99.90;;;;;;4996809;28;20050;-84
2022/01/08 07:27:32;;;;;;;51.78;13.68;;;-0.10;99.90;;;;;;5015149;28;20056;-84
2022/01/08 07:30:01;;;;;;;51.35;12.80;;;-0.10;99.90;;;;;;5014251;28;20068;-84
2022/01/08 07:32:27;;;;;;;55.13;15.75;;;-0.10;99.90;;;;;;5014144;28;20556;-85
2022/01/08 07:34:54;;;;;;;42.47;12.90;;;0.90;99.90;;;;;;4995404;28;20093;-84
2022/01/08 07:37:20;;;;;;;49.70;14.95;;;-0.70;99.90;;;;;;4994865;28;20050;-85
2022/01/08 07:39:45;;;;;;;50.38;13.60;;;0.00;99.90;;;;;;4995610;28;20042;-84
2022/01/08 07:42:11;;;;;;;37.33;12.73;;;-0.10;99.90;;;;;;4995077;28;20129;-83
2022/01/08 07:44:37;;;;;;;39.38;12.70;;;-0.10;99.90;;;;;;4995350;28;20046;-85
2022/01/08 07:47:03;;;;;;;37.30;11.02;;;-0.10;99.90;;;;;;4994854;28;20408;-83
2022/01/08 07:49:29;;;;;;;44.58;12.40;;;-0.10;99.90;;;;;;5011915;28;20046;-83
2022/01/08 07:51:54;;;;;;;40.45;11.80;;;-0.10;99.90;;;;;;5010124;28;20064;-84
2022/01/08 07:54:20;;;;;;;44.55;12.63;;;-0.10;99.90;;;;;;5011670;28;20661;-84
2022/01/08 07:56:46;;;;;;;35.25;10.20;;;-0.10;99.90;;;;;;4994540;28;20060;-86
2022/01/08 07:59:11;;;;;;;37.63;11.93;;;-0.10;99.90;;;;;;5011135;28;20050;-86
2022/01/08 08:01:37;;;;;;;30.48;11.80;;;-0.10;99.90;;;;;;4993492;28;20057;-84
2022/01/08 08:04:03;;;;;;;35.20;10.82;;;-0.10;99.90;;;;;;5012421;28;20049;-84
2022/01/08 08:06:29;;;;;;;32.92;11.98;;;-0.10;99.90;;;;;;4995182;28;20471;-83
2022/01/08 08:08:54;;;;;;;32.60;11.20;;;0.00;99.90;;;;;;5011138;28;20096;-84
2022/01/08 08:11:20;;;;;;;38.00;11.95;;;0.00;99.90;;;;;;5012626;28;20038;-84
2022/01/08 08:13:45;;;;;;;37.45;11.95;;;0.00;99.90;;;;;;4995317;28;20057;-84
2022/01/08 08:16:11;;;;;;;53.80;13.05;;;0.00;99.90;;;;;;5012258;28;20049;-84
2022/01/08 08:18:37;;;;;;;40.95;12.20;;;0.00;99.90;;;;;;5013792;28;20409;-83
2022/01/08 08:21:02;;;;;;;38.47;12.40;;;0.00;99.90;;;;;;5015075;28;20052;-83
2022/01/08 08:23:28;;;;;;;44.05;13.25;;;-0.10;99.90;;;;;;4996724;28;20076;-86
2022/01/08 08:25:54;;;;;;;47.47;14.45;;;-0.10;99.90;;;;;;5015742;28;20076;-84
2022/01/08 08:28:20;;;;;;;43.22;12.38;;;0.00;99.90;;;;;;5013669;28;20050;-83
2022/01/08 08:30:45;;;;;;;46.63;14.10;;;0.30;99.90;;;;;;5013859;28;20054;-84
2022/01/08 08:33:11;;;;;;;33.55;12.30;;;0.00;99.90;;;;;;4996470;28;20054;-83
2022/01/08 08:35:36;;;;;;;35.50;13.07;;;0.20;99.90;;;;;;5012744;28;20046;-83
2022/01/08 08:38:02;;;;;;;35.67;11.48;;;0.20;99.90;;;;;;5009753;28;20493;-84
2022/01/08 08:40:28;;;;;;;44.53;11.00;;;0.30;99.90;;;;;;5011088;28;20137;-83
2022/01/08 08:42:54;;;;;;;28.40;11.00;;;0.40;99.90;;;;;;4993360;28;20488;-85
2022/01/08 08:45:20;;;;;;;34.08;10.75;;;0.40;99.90;;;;;;5011366;28;20042;-83
2022/01/08 08:47:45;;;;;;;33.55;10.10;;;0.40;99.90;;;;;;5014648;28;20508;-85
2022/01/08 08:50:13;;;;;;;28.58;10.05;;;0.40;99.90;;;;;;5004633;28;20676;-86
2022/01/08 08:52:39;;;;;;;34.05;11.55;;;0.50;99.90;;;;;;4987580;28;20053;-85
2022/01/08 08:55:06;;;;;;;36.95;9.20;;;0.50;99.90;;;;;;4975803;28;20054;-84
2022/01/08 08:57:32;;;;;;;30.23;10.48;;;0.40;99.90;;;;;;4959689;28;20060;-85
2022/01/08 08:59:57;;;;;;;35.75;10.80;;;0.50;99.90;;;;;;4966071;28;20052;-85
2022/01/08 09:02:23;;;;;;;29.70;10.15;;;0.50;99.90;;;;;;5001048;28;20116;-84
2022/01/08 09:04:50;;;;;;;24.23;8.50;;;0.50;99.90;;;;;;5003434;28;20052;-85
2022/01/08 09:07:16;;;;;;;32.95;10.40;;;1.30;99.90;;;;;;5006116;28;20054;-85
2022/01/08 09:09:43;;;;;;;30.67;9.32;;;0.50;99.90;;;;;;4978222;28;20050;-85
2022/01/08 09:12:10;;;;;;;24.42;8.35;;;0.60;99.90;;;;;;5014198;28;20056;-85
2022/01/08 09:14:36;;;;;;;34.97;9.23;;;0.60;99.90;;;;;;4996952;28;20100;-85
2022/01/08 09:17:04;;;;;;;33.13;9.38;;;0.60;99.90;;;;;;4997478;28;20456;-86
2022/01/08 09:19:31;;;;;;;16.77;6.97;;;0.60;99.90;;;;;;4997819;28;20073;-85
2022/01/08 09:21:57;;;;;;;26.38;9.15;;;0.80;99.90;;;;;;5012545;28;20045;-86
2022/01/08 09:24:23;;;;;;;22.30;9.07;;;1.30;99.90;;;;;;5012053;28;20084;-85
2022/01/08 09:26:49;;;;;;;29.33;10.15;;;0.70;99.90;;;;;;5012779;28;20045;-86
2022/01/08 09:29:16;;;;;;;27.80;11.35;;;0.70;99.90;;;;;;4999228;28;20056;-85
2022/01/08 09:31:42;;;;;;;33.05;9.85;;;0.80;99.90;;;;;;5018422;28;20050;-85
2022/01/08 09:34:08;;;;;;;23.23;9.75;;;0.90;99.90;;;;;;5033784;28;20107;-85
2022/01/08 09:36:35;;;;;;;28.20;9.45;;;1.00;99.90;;;;;;4998103;28;20045;-83
2022/01/08 09:39:02;;;;;;;32.42;10.52;;;1.10;99.90;;;;;;5013443;28;20441;-85
2022/01/08 09:41:27;;;;;;;31.92;9.18;;;1.30;99.90;;;;;;5012843;28;20664;-84
2022/01/08 09:43:53;;;;;;;37.03;9.80;;;1.40;99.90;;;;;;5012520;28;20053;-84
2022/01/08 09:46:21;;;;;;;26.55;10.00;;;1.50;99.90;;;;;;5013411;28;20052;-86
2022/01/08 09:48:47;;;;;;;27.13;9.88;;;1.50;99.90;;;;;;5032051;28;20630;-85
2022/01/08 09:51:14;;;;;;;20.65;7.97;;;1.50;99.90;;;;;;5032510;28;20064;-84
2022/01/08 09:53:39;;;;;;;26.73;8.18;;;1.60;99.90;;;;;;5013197;28;20390;-85
2022/01/08 09:56:06;;;;;;;30.92;9.63;;;1.60;99.90;;;;;;5014215;28;20053;-84
2022/01/08 09:58:32;;;;;;;21.50;8.82;;;1.60;99.90;;;;;;5031452;28;20080;-85
2022/01/08 10:00:59;;;;;;;25.05;9.50;;;1.70;99.90;;;;;;5030272;28;20132;-84
2022/01/08 10:03:27;;;;;;;22.50;9.13;;;1.70;99.90;;;;;;5013148;28;20053;-85
2022/01/08 10:05:55;;;;;;;19.45;6.20;;;1.80;99.90;;;;;;5029243;28;20551;-87
2022/01/08 10:08:26;;;;;;;23.08;8.85;;;1.90;99.90;;;;;;5030386;28;20055;-84
2022/01/08 10:10:57;;;;;;;19.92;8.48;;;2.30;99.90;;;;;;5012586;28;20084;-86
2022/01/08 10:13:29;;;;;;;31.42;10.60;;;2.00;99.90;;;;;;5011599;28;20057;-87
2022/01/08 10:18:42;;;;;;;33.30;10.70;;;2.00;99.90;;;;;;5030436;28;20045;-85
2022/01/08 10:21:16;;;;;;;31.38;8.30;;;2.10;99.90;;;;;;4998470;28;20057;-86
2022/01/08 10:23:45;;;;;;;20.05;8.15;;;2.10;99.90;;;;;;5013998;28;20057;-85
2022/01/08 10:26:14;;;;;;;26.92;8.95;;;2.00;99.90;;;;;;5014045;28;20057;-85
2022/01/08 10:28:41;;;;;;;27.67;8.05;;;2.10;99.90;;;;;;4991853;28;20076;-85
2022/01/08 10:31:20;;;;;;;20.65;8.43;;;2.10;99.90;;;;;;4995715;28;20100;-86
2022/01/08 10:33:50;;;;;;;20.02;9.10;;;2.10;99.90;;;;;;4997945;28;20108;-84
2022/01/08 10:36:31;;;;;;;32.17;10.18;;;2.10;99.90;;;;;;4980617;28;20054;-86
2022/01/08 10:38:58;;;;;;;23.55;9.10;;;2.20;99.90;;;;;;5012754;28;20424;-85
2022/01/08 10:41:26;;;;;;;24.05;8.20;;;2.20;99.90;;;;;;4994249;28;20052;-86
2022/01/08 10:44:08;;;;;;;28.23;9.23;;;2.20;99.90;;;;;;4992899;28;20419;-88
2022/01/08 10:46:34;;;;;;;21.75;8.02;;;2.30;99.90;;;;;;4993614;28;20419;-87
2022/01/08 10:49:02;;;;;;;20.50;9.10;;;2.40;99.90;;;;;;5014078;28;20097;-86
2022/01/08 10:51:35;;;;;;;19.52;8.07;;;2.40;99.90;;;;;;4995669;28;20057;-87
2022/01/08 10:54:05;;;;;;;32.75;8.98;;;2.50;99.90;;;;;;4979774;28;20541;-86
2022/01/08 10:56:45;;;;;;;30.67;10.00;;;2.50;99.90;;;;;;5011851;28;20062;-86
2022/01/08 10:59:13;;;;;;;20.27;8.35;;;2.40;99.90;;;;;;4994132;28;20088;-84
2022/01/08 11:01:43;;;;;;;20.08;9.85;;;2.50;99.90;;;;;;4995388;28;20049;-86
2022/01/08 11:04:12;;;;;;;21.80;9.50;;;2.50;99.90;;;;;;5014307;28;20053;-85
2022/01/08 11:06:59;;;;;;;30.40;11.30;;;2.40;99.90;;;;;;5013934;28;20050;-85
2022/01/08 11:09:25;;;;;;;;;;;3.30;99.90;;;;;;4995046;28;20100;-84
2022/01/08 11:11:53;;;;;;;29.92;9.00;;;2.50;99.90;;;;;;4959070;28;20073;-86
2022/01/08 11:17:23;;;;;;;21.80;9.80;;;3.20;99.90;;;;;;4972746;28;20058;-85
2022/01/08 11:19:54;;;;;;;24.60;10.27;;;2.60;99.90;;;;;;4975043;28;20085;-86
2022/01/08 11:22:22;;;;;;;17.70;8.32;;;2.60;99.90;;;;;;4973554;28;20058;-85
2022/01/08 11:25:03;;;;;;;28.27;10.57;;;2.60;99.90;;;;;;4991718;28;20051;-86
2022/01/08 11:27:47;;;;;;;18.92;8.05;;;2.60;99.90;;;;;;4975277;28;20129;-87
2022/01/08 11:30:14;;;;;;;23.60;9.55;;;2.70;99.90;;;;;;4989334;28;20108;-85
2022/01/08 11:32:47;;;;;;;17.13;9.63;;;2.60;99.90;;;;;;4976575;28;20089;-85
2022/01/08 11:35:16;;;;;;;18.57;8.97;;;2.80;99.90;;;;;;4995088;28;20286;-85
2022/01/08 11:37:49;;;;;;;22.98;9.85;;;2.80;99.90;;;;;;4994055;28;20320;-87
2022/01/08 11:40:18;;;;;;;26.08;9.65;;;2.80;99.90;;;;;;5006580;28;20049;-84
2022/01/08 11:42:44;;;;;;;18.30;9.10;;;2.90;99.90;;;;;;5032650;28;20464;-87
2022/01/08 11:45:27;;;;;;;17.00;6.35;;;3.60;99.90;;;;;;5032176;28;20037;-85
2022/01/08 11:47:56;;;;;;;22.08;7.80;;;3.10;99.90;;;;;;5028137;28;20211;-85
2022/01/08 11:50:25;;;;;;;16.20;8.00;;;3.20;99.90;;;;;;5019351;28;20050;-86
2022/01/08 11:53:20;;;;;;;16.25;7.05;;;3.30;99.90;;;;;;4991474;28;20523;-85
2022/01/08 11:55:56;;;;;;;23.92;8.65;;;3.30;99.90;;;;;;5010542;28;20096;-87
2022/01/08 11:58:25;;;;;;;14.65;6.97;;;3.30;99.90;;;;;;4990834;28;20831;-87
2022/01/08 12:01:12;;;;;;;26.33;9.93;;;3.30;99.90;;;;;;5008520;28;20038;-86
2022/01/08 12:03:48;;;;;;;21.25;7.40;;;3.40;99.90;;;;;;4992587;28;20177;-86
2022/01/08 12:06:24;;;;;;;24.90;10.40;;;3.50;99.90;;;;;;4977763;28;20053;-86
2022/01/08 12:11:46;;;;;;;9.68;5.35;;;3.50;99.90;;;;;;5027495;28;20103;-85
2022/01/08 12:14:45;;;;;;;21.10;7.90;;;3.60;99.90;;;;;;5012338;28;20145;-86
2022/01/08 12:17:14;;;;;;;19.70;8.43;;;3.60;99.90;;;;;;5010254;28;20057;-86
2022/01/08 12:19:51;;;;;;;21.02;9.05;;;3.60;99.90;;;;;;4977151;28;20046;-85
2022/01/08 12:22:19;;;;;;;20.92;8.07;;;3.60;99.90;;;;;;4993077;28;20049;-87
2022/01/08 12:24:52;;;;;;;29.55;9.05;;;3.60;99.90;;;;;;4992844;28;20088;-87
2022/01/08 12:27:22;;;;;;;12.90;6.65;;;3.60;99.90;;;;;;4976049;28;20298;-85
2022/01/08 12:29:49;;;;;;;16.02;7.78;;;3.60;99.90;;;;;;4999107;28;20585;-86
2022/01/08 12:32:35;;;;;;;21.52;9.15;;;3.60;99.90;;;;;;4979331;28;20077;-86
2022/01/08 12:35:02;;;;;;;19.75;8.75;;;3.60;99.90;;;;;;4994033;28;20130;-85
2022/01/08 12:37:37;;;;;;;19.17;9.45;;;3.70;99.90;;;;;;4973563;28;20051;-86
2022/01/08 12:40:04;;;;;;;18.73;9.15;;;3.70;99.90;;;;;;4991917;28;20054;-85
2022/01/08 12:42:29;;;;;;;13.35;6.68;;;3.70;99.90;;;;;;5000244;28;20065;-85
2022/01/08 12:45:19;;;;;;;21.48;11.30;;;3.80;99.90;;;;;;4998897;28;20058;-86
2022/01/08 12:48:08;;;;;;;20.10;9.82;;;3.70;99.90;;;;;;4992712;28;20065;-85
2022/01/08 12:50:38;;;;;;;18.73;11.30;;;3.70;99.90;;;;;;4994182;28;20116;-87
2022/01/08 12:53:06;;;;;;;26.00;13.15;;;3.70;99.90;;;;;;4994303;28;20050;-85
2022/01/08 12:56:05;;;;;;;18.98;11.57;;;3.70;99.90;;;;;;4956877;28;20042;-85
2022/01/08 12:58:36;;;;;;;18.60;10.32;;;3.80;99.90;;;;;;4992664;28;20184;-86
2022/01/08 13:01:06;;;;;;;18.67;12.35;;;3.70;99.90;;;;;;4999998;28;20054;-84
2022/01/08 13:03:46;;;;;;;24.98;12.05;;;3.70;99.90;;;;;;4972025;28;20053;-85
2022/01/08 13:06:12;;;;;;;24.52;14.40;;;3.70;99.90;;;;;;4959753;28;20501;-85
2022/01/08 13:08:39;;;;;;;17.35;10.50;;;3.60;99.90;;;;;;4991359;28;20346;-85